createdAt,value
2018-11-27T00:00:35.019Z,43.27
2018-11-27T00:03:05.556Z,28.37
2018-11-27T00:05:35.308Z,31.27
2018-11-27T00:08:03.635Z,29.13
2018-11-27T00:10:33.136Z,29.63
2018-11-27T00:13:01.786Z,26.93
2018-11-27T00:15:30.188Z,29.53
2018-11-27T00:17:58.888Z,28.93
2018-11-27T00:20:27.167Z,27.47
2018-11-27T00:22:55.992Z,30.17
2018-11-27T00:25:24.280Z,31.30
2018-11-27T00:27:52.995Z,36.83
2018-11-27T00:30:21.769Z,29.80
2018-11-27T00:32:50.760Z,30.77
2018-11-27T00:37:56.531Z,33.53
2018-11-27T00:40:25.256Z,37.73
2018-11-27T00:42:53.577Z,33.97
2018-11-27T00:45:21.980Z,34.27
2018-11-27T00:47:50.885Z,33.50
2018-11-27T00:50:21.112Z,36.07
2018-11-27T00:52:49.492Z,34.53
2018-11-27T00:55:18.854Z,37.13
2018-11-27T00:57:49.205Z,33.50
2018-11-27T01:00:18.681Z,33.17
2018-11-27T01:02:47.598Z,34.50
2018-11-27T01:05:17.558Z,35.27
2018-11-27T01:07:45.929Z,34.67
2018-11-27T01:10:22.984Z,34.30
2018-11-27T01:12:51.352Z,36.17
2018-11-27T01:15:19.670Z,35.83
2018-11-27T01:17:50.976Z,36.90
2018-11-27T01:20:20.961Z,33.20
2018-11-27T01:22:49.223Z,35.50
2018-11-27T01:25:18.034Z,50.73
2018-11-27T01:27:46.328Z,37.17
2018-11-27T01:30:15.525Z,38.33
2018-11-27T01:32:44.647Z,37.90
2018-11-27T01:35:14.843Z,46.77
2018-11-27T01:37:43.689Z,39.30
2018-11-27T01:40:16.271Z,39.80
2018-11-27T01:42:44.769Z,38.90
2018-11-27T01:45:13.986Z,38.83
2018-11-27T01:47:42.918Z,42.77
2018-11-27T01:50:12.668Z,40.03
2018-11-27T01:52:41.030Z,47.00
2018-11-27T01:55:13.004Z,41.40
2018-11-27T01:57:41.586Z,40.40
2018-11-27T02:00:17.926Z,55.83
2018-11-27T02:02:46.222Z,42.37
2018-11-27T02:05:15.011Z,41.47
2018-11-27T02:07:43.314Z,43.83
2018-11-27T02:10:13.027Z,46.80
2018-11-27T02:12:43.424Z,52.40
2018-11-27T02:15:14.691Z,47.60
2018-11-27T02:17:42.969Z,45.53
2018-11-27T02:20:12.168Z,44.60
2018-11-27T02:22:40.659Z,45.33
2018-11-27T02:25:13.078Z,45.30
2018-11-27T02:27:41.363Z,52.30
2018-11-27T02:30:12.505Z,42.10
2018-11-27T02:32:41.432Z,45.30
2018-11-27T02:35:11.527Z,54.10
2018-11-27T02:37:40.034Z,51.57
2018-11-27T02:40:09.854Z,47.53
2018-11-27T02:42:38.632Z,51.47
2018-11-27T02:45:08.990Z,45.20
2018-11-27T02:47:37.416Z,38.47
2018-11-27T02:50:07.192Z,55.73
2018-11-27T02:52:35.483Z,45.97
2018-11-27T02:55:04.888Z,43.17
2018-11-27T02:57:33.140Z,45.37
2018-11-27T03:00:01.413Z,48.87
2018-11-27T03:02:29.929Z,49.83
2018-11-27T03:04:58.761Z,43.40
2018-11-27T03:07:27.037Z,53.73
2018-11-27T03:09:55.313Z,50.37
2018-11-27T03:12:23.613Z,48.07
2018-11-27T03:14:51.911Z,56.30
2018-11-27T03:17:20.366Z,48.87
2018-11-27T03:19:49.076Z,45.80
2018-11-27T03:22:17.353Z,46.77
2018-11-27T03:24:45.632Z,42.93
2018-11-27T03:27:14.287Z,53.97
2018-11-27T03:29:42.576Z,46.67
2018-11-27T03:32:11.401Z,44.23
2018-11-27T03:34:40.273Z,42.47
2018-11-27T03:37:08.905Z,43.33
2018-11-27T03:39:37.895Z,46.00
2018-11-27T03:42:06.455Z,45.13
2018-11-27T03:44:34.740Z,47.07
2018-11-27T03:47:03.175Z,44.73
2018-11-27T03:49:31.455Z,44.80
2018-11-27T03:51:59.975Z,44.57
2018-11-27T03:54:28.622Z,51.53
2018-11-27T03:56:57.343Z,52.57
2018-11-27T03:59:25.884Z,52.37
2018-11-27T04:01:54.164Z,47.83
2018-11-27T04:04:23.110Z,47.50
2018-11-27T04:06:51.384Z,45.97
2018-11-27T04:09:19.684Z,41.00
2018-11-27T04:11:48.035Z,43.43
2018-11-27T04:14:17.009Z,44.67
2018-11-27T04:16:45.364Z,52.73
2018-11-27T04:19:13.921Z,53.93
2018-11-27T04:21:42.490Z,47.20
2018-11-27T04:24:10.780Z,42.07
2018-11-27T04:26:39.129Z,46.73
2018-11-27T04:29:07.436Z,46.07
2018-11-27T04:31:37.373Z,48.43
2018-11-27T04:34:06.495Z,54.40
2018-11-27T04:36:34.854Z,43.23
2018-11-27T04:39:04.400Z,47.17
2018-11-27T04:41:32.717Z,48.30
2018-11-27T04:44:01.024Z,45.97
2018-11-27T04:46:30.001Z,45.63
2018-11-27T04:48:58.642Z,45.97
2018-11-27T04:51:27.047Z,42.03
2018-11-27T04:53:56.144Z,43.53
2018-11-27T04:56:25.036Z,43.67
2018-11-27T04:58:53.341Z,39.80
2018-11-27T05:01:22.017Z,43.10
2018-11-27T05:03:50.837Z,44.97
2018-11-27T05:06:19.646Z,51.93
2018-11-27T05:08:47.953Z,47.27
2018-11-27T05:11:16.361Z,43.57
2018-11-27T05:13:45.203Z,46.17
2018-11-27T05:16:13.524Z,49.37
2018-11-27T05:18:42.317Z,48.10
2018-11-27T05:21:10.743Z,47.83
2018-11-27T05:23:39.933Z,47.93
2018-11-27T05:26:08.406Z,44.83
2018-11-27T05:28:36.720Z,41.90
2018-11-27T05:31:05.604Z,44.20
2018-11-27T05:33:34.320Z,41.67
2018-11-27T05:36:02.908Z,44.13
2018-11-27T05:38:31.684Z,45.63
2018-11-27T05:40:59.964Z,44.37
2018-11-27T05:43:28.247Z,44.50
2018-11-27T05:45:56.560Z,40.10
2018-11-27T05:48:24.859Z,44.40
2018-11-27T05:50:53.252Z,41.87
2018-11-27T05:53:21.555Z,42.67
2018-11-27T05:55:50.190Z,44.87
2018-11-27T05:58:18.510Z,42.53
2018-11-27T06:00:47.260Z,41.33
2018-11-27T06:03:15.969Z,45.43
2018-11-27T06:05:44.260Z,39.17
2018-11-27T06:08:13.048Z,41.10
2018-11-27T06:10:41.362Z,49.73
2018-11-27T06:13:09.982Z,41.23
2018-11-27T06:15:38.282Z,39.97
2018-11-27T06:18:07.446Z,38.97
2018-11-27T06:20:35.758Z,43.10
2018-11-27T06:23:04.144Z,37.23
2018-11-27T06:25:32.700Z,49.73
2018-11-27T06:28:03.122Z,42.73
2018-11-27T06:30:33.048Z,40.97
2018-11-27T06:33:02.023Z,40.23
2018-11-27T06:38:10.639Z,42.40
2018-11-27T06:40:39.833Z,39.13
2018-11-27T06:43:10.256Z,40.40
2018-11-27T06:45:39.402Z,43.03
2018-11-27T06:48:08.824Z,48.63
2018-11-27T06:50:37.243Z,42.33
2018-11-27T06:53:08.709Z,42.33
2018-11-27T06:55:37.872Z,41.27
2018-11-27T06:58:07.044Z,46.93
2018-11-27T07:00:35.748Z,40.20
2018-11-27T07:03:05.354Z,40.33
2018-11-27T07:05:33.920Z,45.20
2018-11-27T07:08:02.175Z,44.07
2018-11-27T07:10:33.151Z,41.93
2018-11-27T07:13:04.014Z,38.60
2018-11-27T07:15:32.277Z,45.67
2018-11-27T07:18:01.184Z,42.23
2018-11-27T07:20:29.495Z,37.87
2018-11-27T07:22:57.846Z,36.83
2018-11-27T07:25:26.169Z,44.90
2018-11-27T07:27:54.440Z,37.70
2018-11-27T07:30:24.256Z,36.90
2018-11-27T07:32:52.920Z,34.33
2018-11-27T07:35:21.808Z,35.30
2018-11-27T07:37:50.811Z,32.90
2018-11-27T07:40:27.011Z,39.40
2018-11-27T07:42:57.364Z,37.43
2018-11-27T07:45:25.635Z,36.80
2018-11-27T07:47:54.524Z,35.33
2018-11-27T07:50:22.780Z,37.73
2018-11-27T07:52:51.116Z,37.30
2018-11-27T07:55:21.101Z,36.07
2018-11-27T07:57:50.852Z,36.83
2018-11-27T08:00:20.660Z,34.90
2018-11-27T08:02:51.017Z,38.93
2018-11-27T08:07:46.338Z,34.60
2018-11-27T08:10:15.888Z,36.37
2018-11-27T08:12:44.164Z,31.43
2018-11-27T08:15:13.876Z,31.00
2018-11-27T08:17:42.461Z,32.93
2018-11-27T08:20:13.140Z,31.20
2018-11-27T08:22:41.410Z,37.60
2018-11-27T08:25:11.051Z,36.10
2018-11-27T08:27:39.400Z,30.77
2018-11-27T08:30:23.893Z,31.23
2018-11-27T08:32:53.164Z,30.33
2018-11-27T08:35:23.699Z,32.13
2018-11-27T08:37:53.215Z,34.63
2018-11-27T08:40:23.236Z,31.30
2018-11-27T08:42:51.639Z,27.00
2018-11-27T08:45:21.673Z,27.23
2018-11-27T08:47:50.699Z,27.13
2018-11-27T08:50:20.249Z,30.43
2018-11-27T08:52:54.686Z,29.57
2018-11-27T08:55:27.145Z,28.77
2018-11-27T08:57:56.100Z,29.07
2018-11-27T09:00:25.336Z,28.97
2018-11-27T09:02:53.632Z,26.03
2018-11-27T09:05:22.241Z,24.80
2018-11-27T09:07:50.653Z,25.30
2018-11-27T09:10:21.892Z,25.20
2018-11-27T09:12:50.502Z,25.80
2018-11-27T09:15:19.797Z,25.40
2018-11-27T09:17:52.808Z,25.40
2018-11-27T09:20:21.176Z,24.67
2018-11-27T09:22:49.452Z,22.50
2018-11-27T09:25:18.167Z,24.23
2018-11-27T09:27:46.463Z,22.47
2018-11-27T09:30:23.896Z,21.43
2018-11-27T09:32:52.669Z,22.70
2018-11-27T09:35:21.643Z,22.67
2018-11-27T09:37:50.307Z,22.90
2018-11-27T09:40:20.120Z,22.33
2018-11-27T09:42:48.393Z,23.33
2018-11-27T09:45:20.517Z,22.13
2018-11-27T09:47:50.643Z,23.17
2018-11-27T09:50:19.586Z,22.53
2018-11-27T09:52:47.871Z,21.67
2018-11-27T09:55:17.650Z,22.00
2018-11-27T09:57:45.970Z,22.30
2018-11-27T10:00:30.671Z,22.23
2018-11-27T10:03:01.927Z,22.33
2018-11-27T10:05:32.212Z,22.57
2018-11-27T10:08:00.534Z,21.87
2018-11-27T10:10:28.828Z,22.47
2018-11-27T10:12:57.147Z,22.93
2018-11-27T10:15:26.439Z,24.73
2018-11-27T10:18:02.261Z,23.20
2018-11-27T10:20:33.274Z,22.87
2018-11-27T10:23:02.207Z,18.97
2018-11-27T10:25:30.589Z,22.60
2018-11-27T10:27:58.957Z,22.70
2018-11-27T10:30:28.357Z,22.70
2018-11-27T10:32:58.243Z,23.27
2018-11-27T10:35:29.859Z,24.10
2018-11-27T10:37:58.540Z,24.97
2018-11-27T10:40:27.259Z,23.27
2018-11-27T10:42:55.505Z,24.07
2018-11-27T10:45:24.176Z,23.77
2018-11-27T10:47:53.531Z,23.67
2018-11-27T10:50:21.791Z,24.57
2018-11-27T10:52:51.291Z,24.13
2018-11-27T10:55:20.409Z,23.20
2018-11-27T10:57:48.738Z,25.90
2018-11-27T11:00:30.137Z,24.90
2018-11-27T11:04:05.852Z,25.67
2018-11-27T11:06:34.491Z,26.10
2018-11-27T11:09:03.018Z,24.20
2018-11-27T11:11:32.201Z,25.07
2018-11-27T11:14:00.485Z,27.13
2018-11-27T11:16:28.748Z,24.60
2018-11-27T11:18:57.571Z,24.03
2018-11-27T11:21:25.897Z,27.07
2018-11-27T11:23:54.193Z,22.47
2018-11-27T11:26:22.820Z,22.40
2018-11-27T11:28:51.134Z,24.40
2018-11-27T11:31:20.046Z,24.30
2018-11-27T11:33:48.878Z,26.70
2018-11-27T11:36:17.357Z,25.00
2018-11-27T11:38:45.640Z,26.70
2018-11-27T11:41:14.028Z,26.40
2018-11-27T11:43:42.335Z,32.10
2018-11-27T11:46:10.656Z,26.87
2018-11-27T11:48:39.161Z,29.97
2018-11-27T11:51:07.537Z,30.03
2018-11-27T11:53:36.608Z,27.33
2018-11-27T11:56:05.815Z,31.13
2018-11-27T11:58:34.205Z,28.50
2018-11-27T12:01:02.611Z,27.13
2018-11-27T12:03:31.472Z,27.57
2018-11-27T12:06:00.040Z,24.83
2018-11-27T12:08:28.316Z,29.27
2018-11-27T12:10:56.687Z,26.03
2018-11-27T12:13:25.039Z,27.93
2018-11-27T12:15:54.126Z,29.40
2018-11-27T12:18:23.196Z,29.70
2018-11-27T12:20:51.541Z,31.07
2018-11-27T12:23:19.868Z,27.73
2018-11-27T12:25:48.215Z,29.90
2018-11-27T12:28:16.475Z,31.10
2018-11-27T12:30:45.219Z,28.47
2018-11-27T12:33:14.432Z,29.27
2018-11-27T12:35:43.167Z,30.20
2018-11-27T12:38:11.879Z,28.57
2018-11-27T12:40:40.168Z,29.27
2018-11-27T12:43:08.501Z,30.07
2018-11-27T12:45:36.804Z,27.37
2018-11-27T12:48:05.184Z,29.13
2018-11-27T12:50:39.007Z,31.10
2018-11-27T12:53:09.636Z,29.70
2018-11-27T12:55:39.388Z,27.90
2018-11-27T12:58:08.067Z,26.23
2018-11-27T13:00:36.392Z,28.60
2018-11-27T13:03:04.749Z,29.03
2018-11-27T13:05:37.588Z,26.07
2018-11-27T13:08:07.997Z,28.17
2018-11-27T13:10:36.292Z,25.50
2018-11-27T13:13:05.349Z,25.97
2018-11-27T13:15:34.398Z,26.17
2018-11-27T13:18:04.251Z,27.07
2018-11-27T13:20:32.517Z,25.73
2018-11-27T13:23:01.218Z,25.53
2018-11-27T13:25:29.524Z,27.03
2018-11-27T13:27:57.808Z,24.13
2018-11-27T13:30:38.637Z,25.10
2018-11-27T13:33:11.995Z,25.60
2018-11-27T13:35:41.041Z,26.00
2018-11-27T13:38:09.338Z,25.33
2018-11-27T13:40:37.634Z,23.77
2018-11-27T13:43:07.183Z,27.33
2018-11-27T13:45:35.755Z,23.47
2018-11-27T13:48:04.309Z,25.17
2018-11-27T13:50:33.339Z,28.40
2018-11-27T13:53:01.616Z,26.23
2018-11-27T13:55:29.915Z,23.80
2018-11-27T13:57:58.629Z,22.77
2018-11-27T14:00:26.910Z,20.83
2018-11-27T14:02:56.061Z,19.30
2018-11-27T14:05:25.634Z,23.30
2018-11-27T14:07:54.388Z,20.73
2018-11-27T14:10:22.822Z,20.40
2018-11-27T14:12:51.072Z,22.80
2018-11-27T14:15:24.235Z,22.07
2018-11-27T14:17:53.318Z,21.27
2018-11-27T14:20:21.837Z,22.73
2018-11-27T14:25:29.999Z,20.43
2018-11-27T14:27:58.580Z,19.70
2018-11-27T14:30:27.261Z,23.00
2018-11-27T14:32:56.117Z,20.30
2018-11-27T14:35:24.864Z,19.53
2018-11-27T14:37:54.303Z,19.50
2018-11-27T14:40:26.713Z,18.43
2018-11-27T14:42:54.993Z,19.13
2018-11-27T14:45:25.900Z,19.07
2018-11-27T14:47:56.298Z,20.90
2018-11-27T14:50:24.598Z,21.63
2018-11-27T14:52:52.963Z,23.60
2018-11-27T14:55:26.342Z,21.97
2018-11-27T14:57:54.748Z,21.43
2018-11-27T15:00:23.921Z,24.60
2018-11-27T15:02:52.283Z,20.60
2018-11-27T15:05:28.596Z,21.57
2018-11-27T15:07:56.885Z,22.73
2018-11-27T15:10:25.182Z,21.20
2018-11-27T15:12:53.527Z,21.20
2018-11-27T15:15:22.415Z,20.67
2018-11-27T15:17:51.340Z,21.73
2018-11-27T15:20:20.356Z,22.53
2018-11-27T15:22:48.651Z,21.33
2018-11-27T15:25:16.972Z,20.77
2018-11-27T15:27:45.342Z,19.67
2018-11-27T15:30:34.290Z,21.63
2018-11-27T15:33:03.219Z,21.77
2018-11-27T15:35:32.093Z,19.07
2018-11-27T15:38:00.413Z,21.17
2018-11-27T15:40:29.629Z,20.20
2018-11-27T15:42:58.160Z,21.23
2018-11-27T15:45:32.328Z,24.93
2018-11-27T15:48:00.704Z,19.20
2018-11-27T15:50:29.040Z,20.23
2018-11-27T15:52:57.342Z,22.43
2018-11-27T15:55:28.604Z,19.90
2018-11-27T15:57:58.274Z,19.13
2018-11-27T16:00:26.604Z,21.13
2018-11-27T16:02:54.876Z,21.40
2018-11-27T16:05:23.680Z,20.93
2018-11-27T16:07:52.279Z,24.57
2018-11-27T16:10:20.642Z,21.43
2018-11-27T16:12:48.937Z,20.00
2018-11-27T16:15:18.459Z,21.30
2018-11-27T16:17:47.109Z,19.63
2018-11-27T16:20:16.987Z,19.67
2018-11-27T16:22:47.087Z,19.20
2018-11-27T16:25:17.158Z,19.83
2018-11-27T16:27:45.617Z,20.53
2018-11-27T16:30:22.413Z,20.37
2018-11-27T16:32:51.078Z,19.10
2018-11-27T16:35:19.855Z,21.23
2018-11-27T16:37:50.448Z,19.23
2018-11-27T16:40:19.869Z,20.03
2018-11-27T16:42:48.433Z,18.63
2018-11-27T16:45:18.693Z,17.73
2018-11-27T16:47:47.242Z,16.80
2018-11-27T16:50:16.130Z,19.73
2018-11-27T16:52:44.603Z,19.80
2018-11-27T16:55:14.252Z,18.97
2018-11-27T16:57:43.012Z,18.87
2018-11-27T17:00:18.185Z,20.87
2018-11-27T17:02:47.064Z,17.37
2018-11-27T17:05:16.144Z,15.17
2018-11-27T17:07:44.653Z,19.03
2018-11-27T17:10:14.951Z,16.93
2018-11-27T17:12:43.691Z,19.97
2018-11-27T17:15:17.993Z,18.53
2018-11-27T17:17:46.828Z,20.90
2018-11-27T17:20:24.620Z,18.33
2018-11-27T17:22:53.516Z,21.63
2018-11-27T17:25:21.935Z,18.63
2018-11-27T17:31:17.309Z,19.00
2018-11-27T17:34:04.455Z,20.10
2018-11-27T17:36:33.019Z,18.30
2018-11-27T17:39:01.306Z,17.37
2018-11-27T17:41:31.946Z,17.77
2018-11-27T17:44:01.538Z,18.13
2018-11-27T17:46:30.088Z,19.33
2018-11-27T17:48:59.012Z,16.27
2018-11-27T17:51:27.300Z,18.73
2018-11-27T17:53:55.572Z,19.67
2018-11-27T17:56:24.400Z,18.77
2018-11-27T17:58:52.796Z,18.67
2018-11-27T18:01:21.101Z,18.13
2018-11-27T18:03:49.676Z,18.13
2018-11-27T18:06:18.020Z,16.40
2018-11-27T18:08:46.842Z,18.17
2018-11-27T18:11:15.173Z,20.63
2018-11-27T18:13:43.846Z,19.53
2018-11-27T18:16:12.512Z,18.90
2018-11-27T18:18:41.125Z,19.27
2018-11-27T18:21:09.504Z,17.90
2018-11-27T18:23:37.841Z,17.93
2018-11-27T18:26:06.541Z,18.97
2018-11-27T18:28:34.856Z,17.57
2018-11-27T18:31:03.579Z,18.53
2018-11-27T18:33:32.247Z,21.17
2018-11-27T18:36:00.699Z,23.47
2018-11-27T18:38:28.965Z,22.53
2018-11-27T18:40:57.449Z,18.97
2018-11-27T18:43:25.816Z,20.77
2018-11-27T18:45:54.200Z,22.90
2018-11-27T18:48:22.570Z,21.70
2018-11-27T18:50:50.905Z,21.20
2018-11-27T18:53:19.245Z,22.03
2018-11-27T18:55:47.660Z,22.43
2018-11-27T18:58:16.236Z,22.43
2018-11-27T19:00:45.339Z,20.57
2018-11-27T19:03:14.676Z,22.13
2018-11-27T19:05:42.998Z,20.87
2018-11-27T19:08:11.794Z,21.40
2018-11-27T19:10:40.100Z,21.63
2018-11-27T19:13:08.391Z,23.63
2018-11-27T19:15:42.192Z,22.13
2018-11-27T19:18:18.844Z,20.23
2018-11-27T19:20:47.722Z,21.47
2018-11-27T19:23:17.003Z,21.10
2018-11-27T19:25:51.593Z,20.00
2018-11-27T19:31:00.032Z,22.00
2018-11-27T19:33:32.010Z,23.97
2018-11-27T19:36:00.938Z,23.33
2018-11-27T19:38:29.382Z,21.70
2018-11-27T19:41:00.375Z,24.43
2018-11-27T19:43:31.759Z,24.20
2018-11-27T19:46:00.097Z,22.37
2018-11-27T19:48:29.348Z,21.87
2018-11-27T19:50:58.232Z,24.47
2018-11-27T19:53:27.643Z,21.67
2018-11-27T19:55:55.966Z,21.50
2018-11-27T19:58:27.080Z,25.40
2018-11-27T20:00:55.422Z,25.20
2018-11-27T20:06:00.331Z,25.60
2018-11-27T20:08:29.914Z,25.17
2018-11-27T20:10:59.134Z,25.30
2018-11-27T20:13:27.432Z,23.33
2018-11-27T20:16:00.040Z,24.17
2018-11-27T20:18:28.629Z,27.03
2018-11-27T20:20:56.923Z,22.73
2018-11-27T20:23:25.204Z,22.70
2018-11-27T20:25:53.634Z,23.20
2018-11-27T20:28:21.917Z,22.87
2018-11-27T20:30:50.608Z,23.97
2018-11-27T20:33:19.252Z,23.57
2018-11-27T20:35:47.911Z,26.63
2018-11-27T20:38:16.183Z,24.03
2018-11-27T20:40:44.463Z,24.13
2018-11-27T20:43:13.697Z,24.73
2018-11-27T20:45:42.013Z,25.03
2018-11-27T20:48:13.785Z,26.67
2018-11-27T20:50:42.422Z,26.20
2018-11-27T20:53:11.028Z,24.60
2018-11-27T20:55:39.317Z,24.77
2018-11-27T20:58:08.256Z,23.47
2018-11-27T21:00:38.141Z,28.77
2018-11-27T21:03:07.888Z,25.43
2018-11-27T21:05:36.928Z,26.53
2018-11-27T21:08:06.809Z,25.57
2018-11-27T21:10:35.260Z,25.67
2018-11-27T21:13:03.726Z,26.37
2018-11-27T21:15:32.220Z,29.20
2018-11-27T21:18:00.960Z,28.47
2018-11-27T21:20:29.287Z,23.67
2018-11-27T21:22:57.551Z,27.97
2018-11-27T21:25:26.097Z,26.37
2018-11-27T21:27:57.092Z,32.00
2018-11-27T21:30:26.036Z,26.63
2018-11-27T21:32:54.751Z,25.30
2018-11-27T21:35:23.474Z,27.67
2018-11-27T21:37:51.860Z,26.27
2018-11-27T21:40:20.498Z,27.13
2018-11-27T21:42:50.016Z,28.27
2018-11-27T21:45:20.071Z,28.47
2018-11-27T21:47:49.137Z,26.17
2018-11-27T21:50:18.388Z,27.20
2018-11-27T21:52:46.773Z,32.73
2018-11-27T21:55:15.448Z,27.50
2018-11-27T21:57:44.557Z,26.00
2018-11-27T22:00:17.629Z,26.47
2018-11-27T22:02:46.268Z,32.60
2018-11-27T22:05:15.153Z,30.33
2018-11-27T22:07:44.111Z,28.47
2018-11-27T22:10:13.325Z,32.67
2018-11-27T22:12:42.819Z,30.60
2018-11-27T22:15:20.354Z,32.47
2018-11-27T22:17:49.044Z,35.00
2018-11-27T22:20:21.269Z,30.60
2018-11-27T22:22:47.155Z,32.70
2018-11-27T22:25:22.668Z,31.43
2018-11-27T22:27:50.999Z,32.20
2018-11-27T22:30:20.606Z,31.37
2018-11-27T22:32:50.331Z,31.07
2018-11-27T22:35:19.001Z,31.23
2018-11-27T22:37:47.431Z,33.50
2018-11-27T22:40:20.988Z,30.00
2018-11-27T22:42:49.905Z,31.70
2018-11-27T22:45:20.576Z,31.83
2018-11-27T22:47:49.581Z,36.43
2018-11-27T22:50:18.550Z,34.20
2018-11-27T22:52:46.843Z,34.27
2018-11-27T22:55:15.671Z,30.63
2018-11-27T22:57:44.301Z,33.93
2018-11-27T23:00:19.846Z,34.13
2018-11-27T23:02:48.169Z,32.47
2018-11-27T23:05:17.748Z,33.13
2018-11-27T23:07:45.985Z,31.57
2018-11-27T23:10:16.926Z,30.97
2018-11-27T23:12:45.889Z,34.57
2018-11-27T23:15:16.399Z,31.77
2018-11-27T23:17:45.235Z,31.60
2018-11-27T23:20:16.787Z,35.97
2018-11-27T23:22:45.120Z,36.67
2018-11-27T23:25:14.393Z,30.37
2018-11-27T23:27:43.527Z,30.57
2018-11-27T23:30:17.121Z,32.07
2018-11-27T23:32:45.835Z,31.93
2018-11-27T23:35:14.477Z,31.73
2018-11-27T23:37:43.344Z,33.93
2018-11-27T23:40:14.020Z,33.17
2018-11-27T23:42:42.545Z,35.93
2018-11-27T23:45:25.440Z,30.17
2018-11-27T23:47:54.207Z,29.90
2018-11-27T23:50:22.867Z,35.47
2018-11-27T23:52:51.410Z,30.13
2018-11-27T23:55:20.220Z,32.27
2018-11-27T23:57:49.043Z,33.33
